Flight Track Log - Related Links

Times and Time Zones

All times are in EDT time to prevent confusion due to time zone crossing. See the ASQ4219 flight status page for this flight to view local times or setup timezone preferences in your user account.

Time Position Orientation Groundspeed Altitude Reporting Facility
EDT Latitude Longitude Course Direction KTS MPH feet Rate Location/Type
Tue 03:57:39 PM 29.9508 -95.3400 276° West 174 200 700  Level Houston Center
Tue 03:58:10 PM 29.9267 -95.3503 200° South 195 224 1,600 1,551 Climbing Houston Center
Tue 03:59:08 PM 29.9297 -95.4061 274° West 236 272 3,000 1,750 Climbing Houston Center
Tue 04:00:10 PM 29.9497 -95.4831 287° West 247 284 5,100 2,081 Climbing Houston Center
Tue 04:01:00 PM 30.0360 -95.8314 276° West  Level FlightAware Approximate
Tue 04:01:12 PM 29.9436 -95.5683 265° West 278 320 7,300  Level Houston Center
Tue 04:02:00 PM 30.0464 -95.9566 276° West  Level FlightAware Approximate
Tue 04:02:14 PM 29.9206 -95.6703 255° West 276 318 9,900  Level Houston Center
Tue 04:03:16 PM 29.8972 -95.7583 253° West 285 328 11,700 1,452 Climbing Houston Center
Tue 04:04:18 PM 29.9028 -95.8578 274° West 318 366 12,900 1,161 Climbing Houston Center
Tue 04:05:20 PM 29.9236 -95.9650 283° West 342 394 14,100 1,306 Climbing Houston Center
Tue 04:06:22 PM 29.9467 -96.0867 282° West 348 400 15,600 1,306 Climbing Houston Center
Tue 04:07:24 PM 29.9681 -96.1994 282° West 359 413 16,800 1,016 Climbing Houston Center
Tue 04:08:26 PM 29.9894 -96.3131 282° West 363 418 17,700 968 Climbing Houston Center
Tue 04:09:28 PM 30.0108 -96.4311 282° West 374 430 18,800 1,113 Climbing Houston Center
Tue 04:10:30 PM 30.0331 -96.5467 283° West 372 428 20,000 1,452 Climbing Houston Center
Tue 04:11:32 PM 30.0592 -96.6853 282° West 370 426 21,800 1,597 Climbing Houston Center
Tue 04:12:34 PM 30.0783 -96.7953 281° West 357 411 23,300 1,366 Climbing Houston Center
Tue 04:13:35 PM 30.0989 -96.9036 282° West 349 402 24,600 1,171 Climbing Houston Center
Tue 04:14:37 PM 30.1203 -97.0219 282° West 345 397 25,700 1,065 Climbing Houston Center
Tue 04:15:39 PM 30.1411 -97.1344 282° West 351 404 26,800 1,065 Climbing Houston Center
Tue 04:16:41 PM 30.1606 -97.2467 281° West 352 405 27,900 1,161 Climbing Houston Center
Tue 04:17:43 PM 30.1814 -97.3586 282° West 351 404 29,200 1,306 Climbing Houston Center
Tue 04:18:45 PM 30.1994 -97.4667 281° West 342 394 30,600 1,161 Climbing Houston Center
Tue 04:19:47 PM 30.2186 -97.5731 282° West 336 387 31,600 968 Climbing Houston Center
Tue 04:20:49 PM 30.2378 -97.6783 282° West 332 382 32,600 1,016 Climbing Houston Center
Tue 04:21:51 PM 30.2592 -97.8017 281° West 329 379 33,700 919 Climbing Houston Center
Tue 04:22:53 PM 30.2778 -97.9033 282° West 328 377 34,500 774 Climbing Houston Center
Tue 04:23:55 PM 30.3025 -98.0128 285° West 328 377 35,300 677 Climbing Houston Center
Tue 04:24:57 PM 30.3333 -98.1108 290° West 332 382 35,900 97 Climbing Houston Center
Tue 04:25:59 PM 30.3672 -98.2142 291° West 340 391 35,500 -435 Descending Houston Center
Tue 04:27:01 PM 30.4072 -98.3300 292° West 381 438 35,000 -242 Descending Houston Center
Tue 04:28:03 PM 30.4814 -98.4339 310° West 409 471 35,000  Level Houston Center
Tue 04:29:05 PM 30.5594 -98.5386 311° West 422 486 35,000  Level Houston Center
Tue 04:30:07 PM 30.6392 -98.6461 311° West 431 496 35,000 194 Level Houston Center
Tue 04:31:09 PM 30.7300 -98.7725 310° West 435 501 35,400 484 Climbing Houston Center
Tue 04:32:11 PM 30.8078 -98.8772 311° West 431 496 36,000 290 Climbing Houston Center
Tue 04:33:13 PM 30.8850 -98.9867 309° West 434 499 36,000  Level Houston Center
Tue 04:34:15 PM 30.9636 -99.0919 311° West 430 495 36,000  Level Houston Center
Tue 04:35:17 PM 31.0417 -99.2000 310° West 435 501 36,000  Level Houston Center
Tue 04:36:19 PM 31.1175 -99.3050 310° West 425 489 36,000  Level Houston Center
Tue 04:37:21 PM 31.1936 -99.4092 311° West 419 482 36,000  Level Houston Center
Tue 04:38:22 PM 31.2700 -99.5156 310° West 423 487 36,000  Level Houston Center
Tue 04:39:24 PM 31.3586 -99.6392 310° West 424 488 36,000  Level Houston Center
Tue 04:40:26 PM 31.4339 -99.7458 310° West 423 487 36,000  Level Houston Center
Tue 04:41:28 PM 31.5131 -99.8517 311° West 426 490 36,000  Level Houston Center
Tue 04:42:31 PM 31.5881 -99.9556 310° West 424 488 36,000  Level Houston Center
Tue 04:43:33 PM 31.6619 -100.0625 309° West 423 487 36,000  Level Houston Center
Tue 04:44:35 PM 31.7375 -100.1692 310° West 425 489 36,000  Level Houston Center
Tue 04:45:37 PM 31.8278 -100.2972 310° West 426 490 36,000  Level Houston Center
Tue 04:46:39 PM 31.9036 -100.4047 310° West 427 491 36,000  Level Houston Center
Tue 04:47:41 PM 31.9783 -100.5128 309° West 427 491 36,000  Level Houston Center
Tue 04:48:43 PM 32.0497 -100.6183 309° West 419 482 36,000  Level Houston Center
Tue 04:50:00 PM 32.1417 -100.7600 307° West 426 490 36,000  Level Fort Worth Center
Tue 04:51:00 PM 32.2181 -100.8658 310° West 426 490 36,000  Level Fort Worth Center
Tue 04:52:00 PM 32.2900 -100.9767 308° West 426 490 36,000  Level Fort Worth Center
Tue 04:53:00 PM 32.3664 -101.0806 311° West 426 490 36,000  Level Fort Worth Center
Tue 04:54:00 PM 32.4383 -101.1869 309° West 426 490 36,000  Level Fort Worth Center
Tue 04:55:00 PM 32.5186 -101.2961 311° West 431 496 36,000  Level Fort Worth Center
Tue 04:56:00 PM 32.5903 -101.4053 308° West 425 489 36,000  Level Fort Worth Center
Tue 04:57:00 PM 32.6619 -101.5119 309° West 425 489 36,000  Level Fort Worth Center
Tue 04:58:00 PM 32.7336 -101.6189 309° West 425 489 36,000  Level Fort Worth Center
Tue 04:59:00 PM 32.8092 -101.7289 309° West 425 489 36,000  Level Fort Worth Center
Tue 05:00:00 PM 32.8806 -101.8386 308° West 431 496 36,000  Level Fort Worth Center
Tue 05:01:00 PM 32.9519 -101.9436 309° West 418 481 36,000  Level Fort Worth Center
Tue 05:02:00 PM 33.0331 -102.0642 309° West 426 490 36,000  Level Fort Worth Center
Tue 05:03:00 PM 33.1000 -102.1669 308° West 426 490 36,000  Level Fort Worth Center
Tue 05:04:00 PM 33.1792 -102.2853 309° West 426 490 36,000  Level Fort Worth Center
Tue 05:05:00 PM 33.2461 -102.3833 309° West 424 488 36,000  Level Fort Worth Center
Tue 05:06:00 PM 33.3247 -102.5047 308° West 426 490 36,000  Level Fort Worth Center
Tue 05:07:00 PM 33.3817 -102.5925 308° West 426 490 36,000  Level Fort Worth Center
Tue 05:08:00 PM 33.4722 -102.7247 309° West 426 490 36,000  Level Fort Worth Center
Tue 05:09:00 PM 33.5347 -102.8233 307° West 426 490 36,000  Level Fort Worth Center
Tue 05:10:31 PM 33.6417 -102.9861 308° West 412 474 36,000  Level Albuquerque Center
Tue 05:11:32 PM 33.7111 -103.0911 309° West 406 467 36,000  Level Albuquerque Center
Tue 05:12:34 PM 33.7817 -103.1950 309° West 403 464 36,000  Level Albuquerque Center
Tue 05:13:36 PM 33.8503 -103.3047 307° West 408 470 36,000  Level Albuquerque Center
Tue 05:14:37 PM 33.9325 -103.4336 308° West 406 467 36,000  Level Albuquerque Center
Tue 05:15:39 PM 34.0003 -103.5417 307° West 404 465 36,000  Level Albuquerque Center
Tue 05:16:40 PM 34.0686 -103.6478 308° West 403 464 36,000  Level Albuquerque Center
Tue 05:17:42 PM 34.1342 -103.7489 308° West 401 461 36,000  Level Albuquerque Center
Tue 05:18:44 PM 34.2158 -103.8753 308° West 403 464 36,000  Level Albuquerque Center
Tue 05:19:45 PM 34.2844 -103.9847 307° West 402 463 36,000  Level Albuquerque Center
Tue 05:20:47 PM 34.3536 -104.0931 308° West 403 464 36,000  Level Albuquerque Center
Tue 05:21:49 PM 34.4222 -104.2022 307° West 402 463 36,000  Level Albuquerque Center
Tue 05:22:50 PM 34.4903 -104.3119 307° West 401 461 36,000  Level Albuquerque Center
Tue 05:23:52 PM 34.5594 -104.4200 308° West 399 459 36,000  Level Albuquerque Center
Tue 05:24:54 PM 34.6272 -104.5289 307° West 398 458 36,000  Level Albuquerque Center
Tue 05:25:55 PM 34.6953 -104.6394 307° West 402 463 36,000  Level Albuquerque Center
Tue 05:26:57 PM 34.7639 -104.7483 308° West 401 461 36,000  Level Albuquerque Center
Tue 05:27:59 PM 34.8319 -104.8586 307° West 402 463 36,000  Level Albuquerque Center
Tue 05:29:00 PM 34.8997 -104.9678 307° West 401 461 36,000  Level Albuquerque Center
Tue 05:30:02 PM 34.9672 -105.0775 307° West 401 461 36,000  Level Albuquerque Center
Tue 05:31:04 PM 35.0461 -105.2075 307° West 402 463 36,000  Level Albuquerque Center
Tue 05:32:05 PM 35.1150 -105.3194 307° West 405 466 36,000  Level Albuquerque Center
Tue 05:33:07 PM 35.1831 -105.4300 307° West 405 466 36,000  Level Albuquerque Center
Tue 05:34:09 PM 35.2511 -105.5425 307° West 406 467 36,000  Level Albuquerque Center
Tue 05:35:10 PM 35.3194 -105.6550 307° West 408 470 36,000  Level Albuquerque Center
Tue 05:36:12 PM 35.3875 -105.7669 307° West 406 467 36,000  Level Albuquerque Center
Tue 05:37:14 PM 35.4581 -105.8811 307° West 408 470 36,000  Level Albuquerque Center
Tue 05:38:15 PM 35.5231 -105.9906 306° West 402 463 36,000  Level Albuquerque Center
Tue 05:39:17 PM 35.5897 -106.1014 307° West 403 464 36,000  Level Albuquerque Center
Tue 05:40:19 PM 35.6600 -106.2194 306° West 402 463 36,000  Level Albuquerque Center
Tue 05:41:20 PM 35.7344 -106.3425 307° West 402 463 36,000  Level Albuquerque Center
Tue 05:42:22 PM 35.7964 -106.4489 306° West 400 460 36,000  Level Albuquerque Center
Tue 05:43:24 PM 35.8594 -106.5542 306° West 399 459 36,000  Level Albuquerque Center
Tue 05:44:25 PM 35.9286 -106.6736 306° West 398 458 36,000  Level Albuquerque Center
Tue 05:45:27 PM 35.9944 -106.7844 306° West 400 460 36,000  Level Albuquerque Center
Tue 05:46:29 PM 36.0603 -106.8967 306° West 403 464 36,000  Level Albuquerque Center
Tue 05:47:31 PM 36.1253 -107.0083 306° West 402 463 36,000  Level Albuquerque Center
Tue 05:48:32 PM 36.2014 -107.1403 306° West 397 457 36,000  Level Albuquerque Center
Tue 05:49:35 PM 36.2622 -107.2450 306° West 393 452 36,000  Level Albuquerque Center
Tue 05:50:36 PM 36.3344 -107.3694 306° West 396 456 36,000  Level Albuquerque Center
Tue 05:51:37 PM 36.3953 -107.4775 305° West 399 459 36,000  Level Albuquerque Center
Tue 05:52:39 PM 36.4583 -107.5839 306° West 400 460 36,000  Level Albuquerque Center
Tue 05:53:09 PM 36.4758 -107.6186 302° West 394 453 36,000  Level Denver Center
Tue 05:54:43 PM 36.6025 -107.7983 311° West 397 457 36,000  Level Albuquerque Center
Tue 05:55:13 PM 36.6483 -107.8275 333° Northwest 399 459 36,000  Level Denver Center
Tue 05:56:15 PM 36.7583 -107.9000 332° Northwest 402 463 36,000  Level Denver Center
Tue 05:57:16 PM 36.8386 -107.9544 332° Northwest 410 472 36,000  Level Denver Center
Tue 05:58:18 PM 36.9692 -108.0408 332° Northwest 416 479 36,000  Level Denver Center
Tue 05:59:20 PM 37.0636 -108.1036 332° Northwest 404 465 36,000  Level Denver Center
Tue 06:00:22 PM 37.1761 -108.1792 332° Northwest 409 471 36,000  Level Denver Center
Tue 06:01:24 PM 37.2700 -108.2422 332° Northwest 403 464 36,000  Level Denver Center
Tue 06:02:26 PM 37.3811 -108.3192 331° Northwest 405 466 36,000  Level Denver Center
Tue 06:03:28 PM 37.4753 -108.3831 332° Northwest 402 463 36,000  Level Denver Center
Tue 06:04:30 PM 37.5869 -108.4572 332° Northwest 404 465 36,000  Level Denver Center
Tue 06:05:32 PM 37.6825 -108.5222 332° Northwest 406 467 36,000  Level Denver Center
Tue 06:06:34 PM 37.7961 -108.6019 331° Northwest 416 479 36,000  Level Denver Center
Tue 06:07:36 PM 37.8953 -108.6689 332° Northwest 419 482 36,000  Level Denver Center
Tue 06:08:38 PM 38.0108 -108.7517 331° Northwest 424 488 36,000  Level Denver Center
Tue 06:09:40 PM 38.1039 -108.8131 333° Northwest 419 482 36,000  Level Denver Center
Tue 06:10:42 PM 38.2194 -108.8933 331° Northwest 422 486 36,000  Level Denver Center
Tue 06:11:44 PM 38.3150 -108.9600 331° Northwest 412 474 36,000  Level Denver Center
Tue 06:12:46 PM 38.4275 -109.0369 332° Northwest 409 471 36,000  Level Denver Center
Tue 06:13:48 PM 38.5253 -109.1058 331° Northwest 418 481 36,000  Level Denver Center
Tue 06:14:50 PM 38.6411 -109.1875 331° Northwest 424 488 36,000  Level Denver Center
Tue 06:15:52 PM 38.7414 -109.2575 331° Northwest 426 490 36,000  Level Denver Center
Tue 06:16:54 PM 38.8411 -109.3306 330° Northwest 429 494 36,000  Level Denver Center
Tue 06:18:08 PM 38.9592 -109.4133 331° Northwest 431 496 36,000  Level Denver Center
Tue 06:19:22 PM 39.0925 -109.5089 331° Northwest 429 494 36,000 -151 Level Denver Center
Tue 06:20:07 PM 39.1931 -109.5806 331° Northwest 427 491 35,700 -1,234 Descending Salt Lake Center
Tue 06:21:09 PM 39.2922 -109.6522 331° Northwest 425 489 33,800 -1,645 Descending Salt Lake Center
Tue 06:22:11 PM 39.3950 -109.7258 331° Northwest 435 501 32,300 -878 Descending Salt Lake Center
Tue 06:23:12 PM 39.4806 -109.8500 312° West 418 481 32,000 -146 Descending Salt Lake Center
Tue 06:24:14 PM 39.5319 -109.9778 298° West 418 481 32,000  Level Salt Lake Center
Tue 06:25:16 PM 39.5919 -110.1322 297° West 428 493 32,000  Level Salt Lake Center
Tue 06:26:17 PM 39.6436 -110.2650 297° West 430 495 32,000  Level Salt Lake Center
Tue 06:27:19 PM 39.6956 -110.3964 297° West 428 493 32,000  Level Salt Lake Center
Tue 06:28:21 PM 39.7556 -110.5536 296° West 434 499 32,000  Level Salt Lake Center
Tue 06:29:22 PM 39.8064 -110.6869 296° West 430 495 32,000 -634 Level Salt Lake Center
Tue 06:30:24 PM 39.8647 -110.8431 296° West 429 494 30,700 -1,839 Descending Salt Lake Center
Tue 06:31:26 PM 39.9167 -110.9761 297° West 430 495 28,200 -2,634 Descending Salt Lake Center
Tue 06:32:27 PM 39.9753 -111.1319 296° West 429 494 25,300 -2,585 Descending Salt Lake Center
Tue 06:33:29 PM 40.0253 -111.2661 296° West 429 494 22,900 -2,274 Descending Salt Lake Center
Tue 06:34:31 PM 40.0722 -111.3936 296° West 428 493 20,600 -1,854 Descending Salt Lake Center
Tue 06:35:32 PM 40.1314 -111.5528 296° West 401 461 19,100 -780 Descending Salt Lake Center
Tue 06:36:34 PM 40.1797 -111.6853 296° West 402 463 19,000 -532 Descending Salt Lake Center
Tue 06:37:36 PM 40.2297 -111.8206 296° West 405 466 18,000 -919 Descending Salt Lake Center
Tue 06:38:38 PM 40.2792 -111.9364 299° West 372 428 17,100 -1,024 Descending Salt Lake Center
Tue 06:39:39 PM 40.3692 -112.0119 327° Northwest 387 445 15,900 -1,073 Descending Salt Lake Center
Tue 06:40:41 PM 40.4636 -112.0547 341° North 357 411 14,900 -1,548 Descending Salt Lake Center
Tue 06:41:43 PM 40.5594 -112.0678 354° North 345 397 12,700 -2,463 Descending Salt Lake Center
Tue 06:42:16 PM 40.6242 -112.0808 351° North 333 383 11,000 -1,317 Descending Salt Lake Center
Tue 06:43:05 PM 40.6925 -112.0889 355° North 317 365 10,900 67 Descending Salt Lake Center
Tue 06:43:46 PM 40.7461 -112.0906 359° North 275 316 11,100  Climbing Salt Lake Center
Tue 06:44:48 PM 40.8219 -112.0997 355° North 272 313 10,900 -878 Descending Salt Lake Center
Tue 06:45:49 PM 40.8944 -112.1089 355° North 261 300 9,300 -1,608 Descending Salt Lake Center
Tue 06:46:25 PM 40.9397 -112.1100 359° North 263 303 8,300 -1,423 Descending Salt Lake Center
Tue 06:47:26 PM 40.9592 -112.0325 72° East 244 281 7,000 -1,091 Descending Salt Lake Center
Tue 06:48:15 PM 40.9186 -112.0122 159° South 211 243 6,300 -857 Descending Salt Lake Center

Login

Don't have an account? Register now (free) for customized features, flight alerts, and more!